createdAt,value
2022-07-31T00:00:21.020Z,100819.78
2022-07-31T00:02:47.555Z,100823.44
2022-07-31T00:05:14.544Z,100824.38
2022-07-31T00:07:41.163Z,100826.25
2022-07-31T00:10:08.722Z,100828.06
2022-07-31T00:12:35.367Z,100829.06
2022-07-31T00:15:04.129Z,100821.09
2022-07-31T00:17:32.231Z,100819.34
2022-07-31T00:19:58.736Z,100810.50
2022-07-31T00:22:25.350Z,100815.91
2022-07-31T00:24:51.926Z,100817.72
2022-07-31T00:27:18.465Z,100817.72
2022-07-31T00:29:45.246Z,100828.47
2022-07-31T00:32:11.918Z,100823.19
2022-07-31T00:34:38.463Z,100823.22
2022-07-31T00:37:05.409Z,100815.25
2022-07-31T00:39:32.644Z,100817.06
2022-07-31T00:41:59.208Z,100817.09
2022-07-31T00:44:26.042Z,100809.06
2022-07-31T00:46:52.946Z,100830.47
2022-07-31T00:49:19.802Z,100826.88
2022-07-31T00:51:46.854Z,100834.00
2022-07-31T00:54:22.412Z,100824.16
2022-07-31T00:56:50.498Z,100833.97
2022-07-31T00:59:17.841Z,100831.31
2022-07-31T01:01:51.256Z,100829.53
2022-07-31T01:04:19.015Z,100825.09
2022-07-31T01:06:47.496Z,100827.75
2022-07-31T01:09:14.811Z,100831.31
2022-07-31T01:12:19.211Z,100839.34
2022-07-31T01:14:54.140Z,100834.00
2022-07-31T01:17:25.000Z,100839.34
2022-07-31T01:19:53.131Z,100847.38
2022-07-31T01:22:52.434Z,100855.38
2022-07-31T01:25:52.817Z,100850.97
2022-07-31T01:28:59.647Z,100849.19
2022-07-31T01:31:33.629Z,100846.53
2022-07-31T01:34:08.689Z,100848.34
2022-07-31T01:36:39.553Z,100848.34
2022-07-31T01:39:06.200Z,100851.00
2022-07-31T01:41:40.309Z,100851.94
2022-07-31T01:44:14.261Z,100856.38
2022-07-31T01:46:43.738Z,100858.16
2022-07-31T01:49:12.867Z,100854.59
2022-07-31T01:51:41.655Z,100858.19
2022-07-31T01:54:09.808Z,100856.38
2022-07-31T01:56:38.983Z,100854.63
2022-07-31T01:59:20.572Z,100851.03
2022-07-31T02:02:06.808Z,100843.06
2022-07-31T02:04:37.043Z,100837.75
2022-07-31T02:07:06.583Z,100841.34
2022-07-31T02:09:34.903Z,100836.00
2022-07-31T02:12:09.373Z,100839.59
2022-07-31T02:14:36.471Z,100832.50
2022-07-31T02:17:04.039Z,100829.84
2022-07-31T02:20:11.529Z,100828.94
2022-07-31T02:22:38.541Z,100829.88
2022-07-31T02:25:06.917Z,100831.66
2022-07-31T02:27:58.150Z,100838.78
2022-07-31T02:30:26.091Z,100830.78
2022-07-31T02:32:53.513Z,100831.72
2022-07-31T02:35:21.390Z,100834.38
2022-07-31T02:37:51.906Z,100832.59
2022-07-31T02:40:20.010Z,100837.94
2022-07-31T02:42:47.814Z,100836.16
2022-07-31T02:45:15.499Z,100834.38
2022-07-31T02:47:43.033Z,100829.03
2022-07-31T02:50:12.908Z,100823.69
2022-07-31T02:52:39.762Z,100829.03
2022-07-31T02:55:07.353Z,100832.59
2022-07-31T02:57:34.415Z,100826.34
2022-07-31T03:00:01.043Z,100835.28
2022-07-31T03:02:36.922Z,100826.38
2022-07-31T03:05:05.348Z,100829.97
2022-07-31T03:07:31.887Z,100826.44
2022-07-31T03:09:58.819Z,100826.44
2022-07-31T03:12:49.181Z,100814.88
2022-07-31T03:15:21.665Z,100823.81
2022-07-31T03:17:49.934Z,100822.03
2022-07-31T03:20:23.617Z,100818.47
2022-07-31T03:22:51.417Z,100814.00
2022-07-31T03:25:21.854Z,100816.69
2022-07-31T03:27:56.288Z,100823.81
2022-07-31T03:30:28.014Z,100815.81
2022-07-31T03:32:57.128Z,100814.91
2022-07-31T03:35:24.856Z,100815.84
2022-07-31T03:37:51.657Z,100814.97
2022-07-31T03:40:18.381Z,100816.81
2022-07-31T03:42:46.071Z,100811.50
2022-07-31T03:45:13.815Z,100818.66
2022-07-31T03:47:40.607Z,100815.19
2022-07-31T03:50:08.766Z,100809.88
2022-07-31T03:52:36.778Z,100810.75
2022-07-31T03:55:04.078Z,100813.47
2022-07-31T03:57:33.995Z,100809.91
2022-07-31T04:00:03.271Z,100811.69
2022-07-31T04:02:32.631Z,100813.50
2022-07-31T04:05:23.003Z,100815.25
2022-07-31T04:07:50.396Z,100811.66
2022-07-31T04:10:19.268Z,100812.56
2022-07-31T04:12:45.819Z,100809.00
2022-07-31T04:15:13.295Z,100817.91
2022-07-31T04:17:39.892Z,100822.34
2022-07-31T04:20:09.373Z,100827.72
2022-07-31T04:22:35.881Z,100832.13
2022-07-31T04:25:07.491Z,100830.31
2022-07-31T04:27:52.645Z,100822.28
2022-07-31T04:30:19.182Z,100823.16
2022-07-31T04:32:46.774Z,100824.03
2022-07-31T04:35:17.701Z,100832.88
2022-07-31T04:37:48.231Z,100833.72
2022-07-31T04:40:16.149Z,100824.75
2022-07-31T04:42:42.813Z,100832.72
2022-07-31T04:45:09.874Z,100819.38
2022-07-31T04:47:37.189Z,100814.00
2022-07-31T04:50:04.732Z,100820.22
2022-07-31T04:52:32.761Z,100816.63
2022-07-31T04:55:04.599Z,100818.31
2022-07-31T04:57:31.772Z,100820.09
2022-07-31T05:00:00.827Z,100830.75
2022-07-31T05:02:31.066Z,100820.84
2022-07-31T05:04:57.738Z,100823.44
2022-07-31T05:07:30.412Z,100821.59
2022-07-31T05:09:58.704Z,100826.81
2022-07-31T05:12:26.128Z,100824.88
2022-07-31T05:14:53.445Z,100827.38
2022-07-31T05:17:20.484Z,100824.53
2022-07-31T05:19:59.469Z,100834.19
2022-07-31T05:22:43.067Z,100834.91
2022-07-31T05:25:23.179Z,100832.09
2022-07-31T05:27:50.076Z,100833.81
2022-07-31T05:30:17.007Z,100833.63
2022-07-31T05:32:56.278Z,100830.72
2022-07-31T05:35:22.905Z,100835.06
2022-07-31T05:37:49.471Z,100839.34
2022-07-31T05:40:17.274Z,100848.19
2022-07-31T05:43:02.523Z,100837.44
2022-07-31T05:45:46.954Z,100833.75
2022-07-31T05:48:14.731Z,100831.94
2022-07-31T05:50:45.345Z,100828.28
2022-07-31T05:53:14.963Z,100826.50
2022-07-31T05:56:00.309Z,100812.13
2022-07-31T05:58:34.120Z,100822.84
2022-07-31T06:01:01.329Z,100814.69
2022-07-31T06:03:28.059Z,100816.44
2022-07-31T06:06:03.502Z,100820.78
2022-07-31T06:08:30.548Z,100821.56
2022-07-31T06:10:57.602Z,100817.03
2022-07-31T06:13:26.767Z,100820.53
2022-07-31T06:15:53.882Z,100809.66
2022-07-31T06:18:20.872Z,100812.13
2022-07-31T06:20:47.668Z,100812.75
2022-07-31T06:23:22.908Z,100808.09
2022-07-31T06:26:15.239Z,100810.50
2022-07-31T06:28:48.662Z,100804.94
2022-07-31T06:31:21.218Z,100810.03
2022-07-31T06:33:49.736Z,100813.41
2022-07-31T06:36:20.162Z,100815.97
2022-07-31T06:38:55.564Z,100814.03
2022-07-31T06:41:51.597Z,100807.69
2022-07-31T06:44:32.011Z,100812.00
2022-07-31T06:47:19.040Z,100807.38
2022-07-31T06:50:10.586Z,100805.38
2022-07-31T06:52:46.643Z,100800.66
2022-07-31T06:55:13.158Z,100803.97
2022-07-31T06:57:40.768Z,100800.13
2022-07-31T07:00:15.163Z,100800.91
2022-07-31T07:02:47.754Z,100798.97
2022-07-31T07:05:14.731Z,100790.72
2022-07-31T07:07:41.332Z,100799.38
2022-07-31T07:10:09.180Z,100798.38
2022-07-31T07:12:54.383Z,100800.00
2022-07-31T07:15:21.624Z,100796.03
2022-07-31T07:17:48.264Z,100796.59
2022-07-31T07:20:20.000Z,100784.66
2022-07-31T07:22:46.590Z,100796.00
2022-07-31T07:25:20.519Z,100811.94
2022-07-31T07:27:48.343Z,100803.94
2022-07-31T07:30:16.966Z,100797.59
2022-07-31T07:32:44.051Z,100798.47
2022-07-31T07:35:12.463Z,100799.25
2022-07-31T07:37:50.813Z,100794.59
2022-07-31T07:40:17.941Z,100794.31
2022-07-31T07:42:45.184Z,100791.47
2022-07-31T07:45:13.958Z,100788.81
2022-07-31T07:48:02.794Z,100787.97
2022-07-31T07:50:32.055Z,100788.72
2022-07-31T07:53:25.217Z,100782.41
2022-07-31T07:56:10.282Z,100777.66
2022-07-31T07:58:55.582Z,100786.41
2022-07-31T08:01:40.864Z,100789.81
2022-07-31T08:04:27.796Z,100786.22
2022-07-31T08:06:54.341Z,100790.81
2022-07-31T08:09:24.643Z,100780.91
2022-07-31T08:12:09.751Z,100778.81
2022-07-31T08:14:55.116Z,100781.00
2022-07-31T08:17:54.209Z,100785.06
2022-07-31T08:20:21.953Z,100781.28
2022-07-31T08:22:50.801Z,100781.03
2022-07-31T08:25:17.443Z,100779.75
2022-07-31T08:27:47.916Z,100768.72
2022-07-31T08:30:15.883Z,100776.69
2022-07-31T08:32:42.548Z,100776.63
2022-07-31T08:35:27.532Z,100775.34
2022-07-31T08:38:03.461Z,100774.06
2022-07-31T08:40:43.442Z,100774.72
2022-07-31T08:44:00.909Z,100772.16
2022-07-31T08:46:02.789Z,100775.69
2022-07-31T08:48:33.672Z,100770.56
2022-07-31T08:51:05.598Z,100769.50
2022-07-31T08:53:51.672Z,100765.53
2022-07-31T08:56:20.511Z,100763.13
2022-07-31T08:58:47.119Z,100760.00
2022-07-31T09:01:14.732Z,100753.69
2022-07-31T09:03:41.950Z,100760.84
2022-07-31T09:06:13.477Z,100744.09
2022-07-31T09:08:41.182Z,100749.94
2022-07-31T09:11:11.395Z,100743.22
2022-07-31T09:14:02.732Z,100743.88
2022-07-31T09:16:50.352Z,100740.16
2022-07-31T09:19:51.159Z,100742.06
2022-07-31T09:22:28.223Z,100739.34
2022-07-31T09:25:12.202Z,100732.13
2022-07-31T09:27:39.648Z,100730.00
2022-07-31T09:30:07.497Z,100730.81
2022-07-31T09:32:52.350Z,100723.09
2022-07-31T09:35:48.999Z,100726.63
2022-07-31T09:38:16.135Z,100720.94
2022-07-31T09:41:55.529Z,100717.94
2022-07-31T09:44:10.988Z,100718.38
2022-07-31T09:46:46.626Z,100721.91
2022-07-31T09:49:14.328Z,100711.72
2022-07-31T09:51:46.933Z,100708.91
2022-07-31T09:54:22.644Z,100712.03
2022-07-31T09:56:58.725Z,100709.88
2022-07-31T09:59:28.925Z,100711.25
2022-07-31T10:01:55.985Z,100705.03
2022-07-31T10:04:23.540Z,100698.06
2022-07-31T10:06:52.083Z,100702.91
2022-07-31T10:09:21.287Z,100704.63
2022-07-31T10:12:04.948Z,100693.81
2022-07-31T10:14:36.485Z,100696.03
2022-07-31T10:17:04.760Z,100690.94
2022-07-31T10:20:04.282Z,100684.09
2022-07-31T10:22:53.552Z,100680.88
2022-07-31T10:25:29.575Z,100679.72
2022-07-31T10:27:57.889Z,100672.66
2022-07-31T10:30:28.412Z,100668.25
2022-07-31T10:32:58.735Z,100679.00
2022-07-31T10:35:26.049Z,100668.59
2022-07-31T10:38:38.123Z,100672.69
2022-07-31T10:41:34.540Z,100662.81
2022-07-31T10:44:19.248Z,100658.53
2022-07-31T10:47:16.033Z,100661.44
2022-07-31T10:50:01.602Z,100653.25
2022-07-31T10:52:39.925Z,100653.00
2022-07-31T10:55:23.278Z,100648.75
2022-07-31T10:58:16.133Z,100646.94
2022-07-31T11:00:53.625Z,100648.41
2022-07-31T11:03:39.026Z,100646.03
2022-07-31T11:06:21.422Z,100649.81
2022-07-31T11:09:25.995Z,100648.09
2022-07-31T11:12:03.276Z,100640.72
2022-07-31T11:14:40.408Z,100643.28
2022-07-31T11:18:23.182Z,100645.91
2022-07-31T11:20:26.330Z,100627.88
2022-07-31T11:22:54.537Z,100631.56
2022-07-31T11:25:21.759Z,100625.97
2022-07-31T11:27:48.303Z,100628.56
2022-07-31T11:30:14.856Z,100623.28
2022-07-31T11:32:47.541Z,100612.59
2022-07-31T11:35:24.382Z,100606.19
2022-07-31T11:37:58.129Z,100604.28
2022-07-31T11:40:26.530Z,100600.28
2022-07-31T11:43:24.359Z,100603.41
2022-07-31T11:45:49.804Z,100602.16
2022-07-31T11:48:19.188Z,100600.25
2022-07-31T11:50:47.842Z,100589.28
2022-07-31T11:53:14.539Z,100595.34
2022-07-31T11:55:54.206Z,100589.56
2022-07-31T11:58:22.719Z,100603.47
2022-07-31T12:01:00.463Z,100594.53
2022-07-31T12:03:38.747Z,100590.31
2022-07-31T12:06:07.324Z,100587.63
2022-07-31T12:08:35.406Z,100585.72
2022-07-31T12:11:04.427Z,100590.16
2022-07-31T12:13:32.335Z,100580.88
2022-07-31T12:16:09.885Z,100582.31
2022-07-31T12:18:47.640Z,100574.66
2022-07-31T12:21:14.416Z,100567.22
2022-07-31T12:23:43.770Z,100560.63
2022-07-31T12:26:22.765Z,100563.44
2022-07-31T12:29:07.731Z,100547.97
2022-07-31T12:31:52.459Z,100546.78
2022-07-31T12:34:38.278Z,100544.88
2022-07-31T12:37:13.228Z,100542.84
2022-07-31T12:39:59.457Z,100540.50
2022-07-31T12:42:41.221Z,100530.63
2022-07-31T12:45:19.402Z,100528.72
2022-07-31T12:47:52.250Z,100529.13
2022-07-31T12:50:20.119Z,100527.56
2022-07-31T12:52:46.730Z,100517.81
2022-07-31T12:55:13.672Z,100516.44
2022-07-31T12:57:51.321Z,100511.28
2022-07-31T13:00:24.079Z,100511.19
2022-07-31T13:02:58.195Z,100506.25
2022-07-31T13:05:25.690Z,100496.78
2022-07-31T13:07:52.692Z,100496.88
2022-07-31T13:10:23.668Z,100503.41
2022-07-31T13:12:51.069Z,100502.31
2022-07-31T13:15:19.992Z,100495.72
2022-07-31T13:17:50.586Z,100496.19
2022-07-31T13:20:17.989Z,100493.66
2022-07-31T13:22:44.501Z,100491.72
2022-07-31T13:25:11.216Z,100491.31
2022-07-31T13:27:38.159Z,100484.50
2022-07-31T13:30:05.376Z,100484.03
2022-07-31T13:32:32.030Z,100476.75
2022-07-31T13:35:26.773Z,100473.59
2022-07-31T13:37:46.529Z,100474.03
2022-07-31T13:40:13.797Z,100472.91
2022-07-31T13:42:40.520Z,100459.63
2022-07-31T13:45:08.579Z,100458.47
2022-07-31T13:47:51.731Z,100455.44
2022-07-31T13:50:19.265Z,100455.94
2022-07-31T13:52:45.785Z,100448.25
2022-07-31T13:55:12.279Z,100441.13
2022-07-31T13:57:38.763Z,100448.75
2022-07-31T14:00:06.167Z,100436.41
2022-07-31T14:02:32.771Z,100446.63
2022-07-31T14:04:59.437Z,100450.84
2022-07-31T14:07:48.084Z,100449.63
2022-07-31T14:10:17.148Z,100433.88
2022-07-31T14:12:46.547Z,100442.38
2022-07-31T14:15:13.077Z,100435.00
2022-07-31T14:17:39.655Z,100434.84
2022-07-31T14:20:06.674Z,100434.75
2022-07-31T14:22:33.614Z,100435.53
2022-07-31T14:25:02.508Z,100428.13
2022-07-31T14:27:29.199Z,100429.19
2022-07-31T14:29:55.827Z,100427.16
2022-07-31T14:32:22.690Z,100422.84
2022-07-31T14:34:50.269Z,100426.59
2022-07-31T14:37:17.257Z,100425.97
2022-07-31T14:39:44.163Z,100422.31
2022-07-31T14:42:11.187Z,100427.50
2022-07-31T14:44:40.132Z,100424.47
2022-07-31T14:47:06.897Z,100425.00
2022-07-31T14:50:09.351Z,100425.38
2022-07-31T14:52:20.557Z,100423.72
2022-07-31T14:54:47.139Z,100426.69
2022-07-31T14:57:21.337Z,100424.84
2022-07-31T14:59:50.251Z,100432.22
2022-07-31T15:02:21.883Z,100429.16
2022-07-31T15:04:49.909Z,100430.19
2022-07-31T15:07:34.683Z,100425.44
2022-07-31T15:10:07.920Z,100436.78
2022-07-31T15:12:34.569Z,100429.06
2022-07-31T15:15:01.372Z,100436.66
2022-07-31T15:17:27.918Z,100439.22
2022-07-31T15:19:54.469Z,100429.84
2022-07-31T15:22:21.148Z,100429.25
2022-07-31T15:24:50.001Z,100424.94
2022-07-31T15:27:24.678Z,100416.19
2022-07-31T15:30:05.041Z,100411.66
2022-07-31T15:32:38.967Z,100420.22
2022-07-31T15:35:07.653Z,100418.19
2022-07-31T15:37:38.680Z,100412.84
2022-07-31T15:40:11.275Z,100414.44
2022-07-31T15:42:40.926Z,100418.81
2022-07-31T15:45:13.874Z,100414.66
2022-07-31T15:47:41.271Z,100413.13
2022-07-31T15:50:09.986Z,100411.03
2022-07-31T15:52:37.079Z,100405.78
2022-07-31T15:55:04.662Z,100403.94
2022-07-31T15:57:31.202Z,100399.59
2022-07-31T15:59:58.066Z,100400.22
2022-07-31T16:02:25.383Z,100399.97
2022-07-31T16:04:54.817Z,100396.59
2022-07-31T16:08:30.839Z,100401.97
2022-07-31T16:10:16.341Z,100397.47
2022-07-31T16:12:48.182Z,100396.19
2022-07-31T16:15:16.742Z,100386.84
2022-07-31T16:17:44.509Z,100383.78
2022-07-31T16:20:25.991Z,100381.50
2022-07-31T16:23:01.012Z,100384.41
2022-07-31T16:25:29.056Z,100393.66
2022-07-31T16:27:56.166Z,100392.19
2022-07-31T16:30:23.260Z,100386.38
2022-07-31T16:32:50.195Z,100388.72
2022-07-31T16:35:17.137Z,100389.47
2022-07-31T16:37:51.711Z,100387.69
2022-07-31T16:40:30.146Z,100392.97
2022-07-31T16:43:03.023Z,100391.81
2022-07-31T16:45:51.138Z,100392.28
2022-07-31T16:48:18.031Z,100401.84
2022-07-31T16:50:44.606Z,100419.13
2022-07-31T16:53:13.602Z,100413.75
2022-07-31T16:56:01.711Z,100415.63
2022-07-31T16:58:28.828Z,100407.06
2022-07-31T17:00:58.145Z,100398.38
2022-07-31T17:03:59.110Z,100408.63
2022-07-31T17:06:11.555Z,100413.47
2022-07-31T17:08:38.391Z,100412.16
2022-07-31T17:11:05.204Z,100412.53
2022-07-31T17:13:31.888Z,100423.88
2022-07-31T17:16:01.285Z,100431.50
2022-07-31T17:18:27.846Z,100440.72
2022-07-31T17:20:56.157Z,100439.31
2022-07-31T17:23:42.826Z,100449.84
2022-07-31T17:26:20.718Z,100443.72
2022-07-31T17:28:48.930Z,100440.81
2022-07-31T17:31:15.479Z,100463.50
2022-07-31T17:33:55.820Z,100482.41
2022-07-31T17:36:27.422Z,100489.75
2022-07-31T17:38:53.943Z,100493.34
2022-07-31T17:41:24.574Z,100497.53
2022-07-31T17:43:53.273Z,100503.63
2022-07-31T17:46:28.329Z,100496.84
2022-07-31T17:49:01.787Z,100502.50
2022-07-31T17:51:28.485Z,100495.56
2022-07-31T17:53:59.333Z,100497.84
2022-07-31T17:56:26.534Z,100501.13
2022-07-31T17:58:53.112Z,100493.28
2022-07-31T18:01:20.211Z,100470.09
2022-07-31T18:03:48.148Z,100464.59
2022-07-31T18:06:14.831Z,100485.16
2022-07-31T18:08:41.577Z,100469.97
2022-07-31T18:11:08.294Z,100469.84
2022-07-31T18:13:48.687Z,100473.31
2022-07-31T18:16:19.273Z,100456.94
2022-07-31T18:18:46.226Z,100458.59
2022-07-31T18:21:13.429Z,100453.16
2022-07-31T18:23:43.529Z,100457.66
2022-07-31T18:26:14.067Z,100459.63
2022-07-31T18:28:40.707Z,100462.31
2022-07-31T18:31:15.535Z,100461.44
2022-07-31T18:33:53.745Z,100468.53
2022-07-31T18:36:21.299Z,100462.25
2022-07-31T18:38:48.151Z,100457.72
2022-07-31T18:41:17.186Z,100452.31
2022-07-31T18:43:43.680Z,100467.63
2022-07-31T18:46:10.296Z,100473.97
2022-07-31T18:48:36.897Z,100463.31
2022-07-31T18:51:05.199Z,100460.56
2022-07-31T18:53:33.166Z,100463.22
2022-07-31T18:55:59.773Z,100460.56
2022-07-31T18:58:26.291Z,100457.03
2022-07-31T19:00:55.270Z,100453.41
2022-07-31T19:03:23.500Z,100454.34
2022-07-31T19:05:53.082Z,100466.91
2022-07-31T19:08:20.541Z,100457.16
2022-07-31T19:10:49.380Z,100459.03
2022-07-31T19:13:18.986Z,100456.34
2022-07-31T19:15:51.576Z,100462.63
2022-07-31T19:18:20.408Z,100450.97
2022-07-31T19:20:58.722Z,100451.84
2022-07-31T19:23:41.884Z,100457.22
2022-07-31T19:26:08.664Z,100444.72
2022-07-31T19:28:36.712Z,100459.97
2022-07-31T19:31:03.283Z,100460.03
2022-07-31T19:33:30.171Z,100458.22
2022-07-31T19:36:01.470Z,100447.56
2022-07-31T19:38:31.329Z,100452.94
2022-07-31T19:40:58.093Z,100449.41
2022-07-31T19:43:24.726Z,100455.69
2022-07-31T19:46:09.884Z,100444.03
2022-07-31T19:48:39.652Z,100448.56
2022-07-31T19:51:06.433Z,100442.28
2022-07-31T19:53:32.998Z,100445.09
2022-07-31T19:56:01.936Z,100433.53
2022-07-31T19:58:28.451Z,100425.56
2022-07-31T20:00:54.932Z,100432.78
2022-07-31T20:03:21.523Z,100428.47
2022-07-31T20:05:48.113Z,100429.47
2022-07-31T20:08:14.599Z,100426.78
2022-07-31T20:10:41.145Z,100431.34
2022-07-31T20:13:07.808Z,100426.09
2022-07-31T20:15:51.354Z,100431.66
2022-07-31T20:18:30.466Z,100422.97
2022-07-31T20:21:00.830Z,100423.16
2022-07-31T20:23:27.444Z,100419.63
2022-07-31T20:25:54.724Z,100415.19
2022-07-31T20:28:21.455Z,100417.94
2022-07-31T20:30:48.331Z,100414.38
2022-07-31T20:33:14.992Z,100416.13
2022-07-31T20:35:48.671Z,100424.16
2022-07-31T20:38:23.777Z,100441.13
2022-07-31T20:40:53.329Z,100424.16
2022-07-31T20:43:26.916Z,100422.53
2022-07-31T20:45:57.443Z,100421.78
2022-07-31T20:48:31.053Z,100421.88
2022-07-31T20:51:02.539Z,100417.47
2022-07-31T20:53:30.010Z,100418.41
2022-07-31T20:55:57.096Z,100413.06
2022-07-31T20:58:24.625Z,100421.22
2022-07-31T21:00:52.363Z,100416.97
2022-07-31T21:03:20.064Z,100426.16
2022-07-31T21:05:47.414Z,100426.25
2022-07-31T21:08:14.026Z,100432.59
2022-07-31T21:10:40.968Z,100422.91
2022-07-31T21:13:07.880Z,100424.81
2022-07-31T21:15:42.251Z,100424.91
2022-07-31T21:18:18.551Z,100414.25
2022-07-31T21:20:49.969Z,100416.94
2022-07-31T21:23:20.171Z,100414.28
2022-07-31T21:25:47.205Z,100415.28
2022-07-31T21:28:14.008Z,100414.47
2022-07-31T21:30:41.385Z,100403.81
2022-07-31T21:33:08.941Z,100407.53
2022-07-31T21:35:37.325Z,100396.84
2022-07-31T21:38:04.737Z,100407.59
2022-07-31T21:40:34.028Z,100397.75
2022-07-31T21:43:00.988Z,100404.88
2022-07-31T21:45:39.559Z,100396.72
2022-07-31T21:48:15.587Z,100397.53
2022-07-31T21:50:44.819Z,100397.47
2022-07-31T21:53:12.621Z,100396.59
2022-07-31T21:55:40.159Z,100394.84
2022-07-31T21:58:07.844Z,100400.25
2022-07-31T22:00:34.826Z,100398.44
2022-07-31T22:03:02.963Z,100397.56
2022-07-31T22:05:48.923Z,100396.78
2022-07-31T22:08:15.882Z,100400.38
2022-07-31T22:10:43.078Z,100405.78
2022-07-31T22:13:10.014Z,100405.00
2022-07-31T22:15:55.456Z,100403.41
2022-07-31T22:18:23.481Z,100401.81
2022-07-31T22:20:53.597Z,100402.78
2022-07-31T22:23:20.416Z,100404.66
2022-07-31T22:25:48.987Z,100401.13
2022-07-31T22:28:18.790Z,100408.34
2022-07-31T22:30:45.809Z,100392.28
2022-07-31T22:33:12.657Z,100403.06
2022-07-31T22:35:40.859Z,100400.44
2022-07-31T22:38:09.714Z,100395.94
2022-07-31T22:40:36.362Z,100401.34
2022-07-31T22:43:03.749Z,100396.06
2022-07-31T22:45:34.816Z,100402.38
2022-07-31T22:48:01.807Z,100405.03
2022-07-31T22:50:28.418Z,100405.06
2022-07-31T22:52:55.623Z,100397.94
2022-07-31T22:55:22.183Z,100398.78
2022-07-31T22:57:49.218Z,100403.22
2022-07-31T23:00:18.243Z,100406.84
2022-07-31T23:02:45.774Z,100410.38
2022-07-31T23:05:12.436Z,100405.88
2022-07-31T23:07:39.035Z,100413.00
2022-07-31T23:10:11.084Z,100421.00
2022-07-31T23:12:37.740Z,100415.69
2022-07-31T23:15:05.435Z,100418.38
2022-07-31T23:17:31.927Z,100419.16
2022-07-31T23:19:58.955Z,100422.75
2022-07-31T23:22:33.329Z,100423.59
2022-07-31T23:25:01.989Z,100424.44
2022-07-31T23:27:28.610Z,100419.06
2022-07-31T23:29:55.298Z,100419.91
2022-07-31T23:32:21.851Z,100415.50
2022-07-31T23:34:48.654Z,100417.31
2022-07-31T23:37:15.303Z,100415.56
2022-07-31T23:39:41.927Z,100408.44
2022-07-31T23:42:27.595Z,100416.47
2022-07-31T23:44:54.133Z,100406.69
2022-07-31T23:47:23.968Z,100406.75
2022-07-31T23:50:10.440Z,100405.00
2022-07-31T23:52:36.934Z,100405.06
2022-07-31T23:55:03.615Z,100404.19
2022-07-31T23:57:34.476Z,100397.06
